Time;durP1;ratioP1;P1;durP2;ratioP2;P2;SDS_P1;SDS_P2;PMS_P1;PMS_P2;Temp;Humidity;BMP_temperature;BMP_pressure;BME280_temperature;BME280_humidity;BME280_pressure;Samples;Min_cycle;Max_cycle;Signal;HPM_P1;HPM_P2
2020/12/15 00:00:05;;;;;;;;;;;7.40;78.90;;;;;;5003565;28;19932;-46
2020/12/15 00:02:32;;;;;;;;;;;7.30;79.00;;;;;;5004470;28;20296;-43
2020/12/15 00:04:59;;;;;;;;;;;7.30;78.90;;;;;;5006791;28;19939;-45
2020/12/15 00:07:28;;;;;;;;;;;7.30;78.90;;;;;;5001833;28;19932;-47
2020/12/15 00:09:54;;;;;;;;;;;7.30;79.00;;;;;;5006433;28;19925;-45
2020/12/15 00:12:20;;;;;;;;;;;7.30;79.00;;;;;;5005984;28;19935;-45
2020/12/15 00:14:47;;;;;;;;;;;7.30;79.00;;;;;;5008076;28;19932;-48
2020/12/15 00:17:13;;;;;;;;;;;7.30;79.00;;;;;;5003618;28;20289;-46
2020/12/15 00:19:39;;;;;;;;;;;7.20;79.00;;;;;;4996546;28;19975;-44
2020/12/15 00:22:06;;;;;;;;;;;7.20;79.00;;;;;;5004679;28;19933;-45
2020/12/15 00:24:36;;;;;;;;;;;7.20;79.00;;;;;;5002290;28;20879;-44
2020/12/15 00:27:02;;;;;;;;;;;7.20;79.10;;;;;;5006190;28;19925;-47
2020/12/15 00:29:28;;;;;;;;;;;7.30;79.20;;;;;;4999608;28;19985;-46
2020/12/15 00:31:54;;;;;;;;;;;7.30;79.10;;;;;;5004109;28;19948;-47
2020/12/15 00:34:21;;;;;;;;;;;7.30;79.20;;;;;;5015913;28;19932;-47
2020/12/15 00:36:47;;;;;;;;;;;7.30;79.20;;;;;;5002576;28;21379;-44
2020/12/15 00:39:16;;;;;;;;;;;7.30;79.20;;;;;;5002167;28;20276;-47
2020/12/15 00:41:47;;;;;;;;;;;7.30;79.20;;;;;;5009865;28;19929;-43
2020/12/15 00:44:13;;;;;;;;;;;7.30;79.40;;;;;;5008316;28;20301;-47
2020/12/15 00:46:39;;;;;;;;;;;7.30;79.40;;;;;;5009258;28;19972;-49
2020/12/15 00:49:06;;;;;;;;;;;7.30;79.40;;;;;;5004776;28;20385;-47
2020/12/15 00:51:32;;;;;;;;;;;7.30;79.20;;;;;;5005271;28;19940;-47
2020/12/15 00:53:59;;;;;;;;;;;7.30;79.10;;;;;;5004437;28;19969;-45
2020/12/15 00:56:25;;;;;;;;;;;7.30;79.10;;;;;;5024697;28;19933;-46
2020/12/15 00:58:51;;;;;;;;;;;7.40;79.10;;;;;;5005717;28;19937;-47
2020/12/15 01:01:17;;;;;;;;;;;7.40;79.10;;;;;;5008500;28;19925;-45
2020/12/15 01:03:44;;;;;;;;;;;7.40;79.10;;;;;;5007173;28;21456;-47
2020/12/15 01:06:10;;;;;;;;;;;7.40;79.20;;;;;;5007031;28;19929;-45
2020/12/15 01:08:36;;;;;;;;;;;7.40;79.30;;;;;;5004131;28;19929;-46
2020/12/15 01:11:15;;;;;;;;;;;7.40;79.40;;;;;;5008576;28;19980;-47
2020/12/15 01:13:41;;;;;;;;;;;7.40;79.40;;;;;;5008168;28;19929;-44
2020/12/15 01:16:08;;;;;;;;;;;7.40;79.40;;;;;;5014957;28;20009;-46
2020/12/15 01:18:35;;;;;;;;;;;7.40;79.40;;;;;;5009169;28;19957;-46
2020/12/15 01:21:02;;;;;;;;;;;7.40;79.60;;;;;;5009089;28;19984;-44
2020/12/15 01:23:29;;;;;;;;;;;7.40;79.90;;;;;;5006282;28;19935;-46
2020/12/15 01:25:56;;;;;;;;;;;7.50;80.10;;;;;;5008306;28;19977;-43
2020/12/15 01:28:22;;;;;;;;;;;7.40;80.40;;;;;;5007358;28;19930;-44
2020/12/15 01:30:48;;;;;;;;;;;7.40;80.50;;;;;;5007103;28;19925;-44
2020/12/15 01:33:15;;;;;;;;;;;7.50;80.70;;;;;;5004221;28;19926;-43
2020/12/15 01:35:41;;;;;;;;;;;7.50;81.00;;;;;;5006887;28;19952;-43
2020/12/15 01:38:08;;;;;;;;;;;7.40;81.10;;;;;;5008182;28;19929;-43
2020/12/15 01:40:34;;;;;;;;;;;7.50;81.20;;;;;;5007457;28;19936;-43
2020/12/15 01:43:00;;;;;;;;;;;7.50;81.30;;;;;;5003648;28;20280;-43
2020/12/15 01:45:26;;;;;;;;;;;7.40;81.40;;;;;;5007148;28;20389;-43
2020/12/15 01:47:53;;;;;;;;;;;7.50;81.50;;;;;;5009091;28;20030;-43
2020/12/15 01:50:20;;;;;;;;;;;7.50;81.60;;;;;;4995429;28;20415;-44
2020/12/15 01:52:47;;;;;;;;;;;7.50;81.70;;;;;;5005654;28;19940;-43
2020/12/15 01:55:15;;;;;;;;;;;7.50;81.70;;;;;;5007646;28;19925;-43
2020/12/15 01:57:43;;;;;;;;;;;7.50;81.80;;;;;;5007147;28;19925;-44
2020/12/15 02:00:09;;;;;;;;;;;7.50;81.90;;;;;;5003837;28;19932;-43
2020/12/15 02:02:35;;;;;;;;;;;7.50;81.90;;;;;;5006884;28;20396;-43
2020/12/15 02:05:02;;;;;;;;;;;7.50;82.00;;;;;;5005819;28;20328;-44
2020/12/15 02:07:28;;;;;;;;;;;7.50;82.00;;;;;;5006558;28;20373;-44
2020/12/15 02:09:54;;;;;;;;;;;7.50;82.00;;;;;;5003696;28;20308;-44
2020/12/15 02:12:20;;;;;;;;;;;7.50;81.90;;;;;;5011677;28;19941;-43
2020/12/15 02:14:46;;;;;;;;;;;7.50;81.90;;;;;;5005668;28;19964;-44
2020/12/15 02:17:15;;;;;;;;;;;7.50;82.00;;;;;;5005886;28;20654;-43
2020/12/15 02:19:41;;;;;;;;;;;7.50;82.00;;;;;;5008168;28;20160;-44
2020/12/15 02:22:08;;;;;;;;;;;7.50;82.00;;;;;;5012144;28;19925;-43
2020/12/15 02:24:35;;;;;;;;;;;7.50;82.10;;;;;;5006913;28;19933;-43
2020/12/15 02:27:01;;;;;;;;;;;7.50;82.10;;;;;;5024771;28;20396;-43
2020/12/15 02:29:28;;;;;;;;;;;7.50;82.10;;;;;;5006348;28;20482;-43
2020/12/15 02:31:57;;;;;;;;;;;7.50;82.20;;;;;;5008413;28;19934;-43
2020/12/15 02:34:23;;;;;;;;;;;7.50;82.30;;;;;;5005847;28;19925;-44
2020/12/15 02:36:50;;;;;;;;;;;7.50;82.30;;;;;;5007545;28;19932;-43
2020/12/15 02:39:17;;;;;;;;;;;7.50;82.30;;;;;;5010011;28;19929;-45
2020/12/15 02:41:57;;;;;;;;;;;7.50;82.30;;;;;;5005962;28;19940;-43
2020/12/15 02:44:24;;;;;;;;;;;7.50;82.40;;;;;;5007380;28;20388;-43
2020/12/15 02:46:50;;;;;;;;;;;7.50;82.40;;;;;;5006874;28;19932;-44
2020/12/15 02:49:16;;;;;;;;;;;7.50;82.40;;;;;;5007866;28;19925;-43
2020/12/15 02:51:47;;;;;;;;;;;7.50;82.50;;;;;;5006960;28;19929;-43
2020/12/15 02:54:13;;;;;;;;;;;7.50;82.60;;;;;;5004270;28;19928;-43
2020/12/15 02:56:40;;;;;;;;;;;7.50;82.60;;;;;;5007556;28;19933;-44
2020/12/15 02:59:07;;;;;;;;;;;7.50;82.60;;;;;;5006648;28;19935;-43
2020/12/15 03:01:46;;;;;;;;;;;7.50;82.60;;;;;;5008640;28;19931;-44
2020/12/15 03:04:12;;;;;;;;;;;7.50;82.70;;;;;;5009285;28;20016;-43
2020/12/15 03:06:46;;;;;;;;;;;7.50;82.70;;;;;;5008374;28;19952;-43
2020/12/15 03:09:13;;;;;;;;;;;7.50;82.70;;;;;;5007358;28;19929;-43
2020/12/15 03:11:39;;;;;;;;;;;7.50;82.80;;;;;;5009195;28;20492;-43
2020/12/15 03:14:05;;;;;;;;;;;7.50;82.80;;;;;;5008009;28;20379;-44
2020/12/15 03:16:32;;;;;;;;;;;7.50;82.80;;;;;;5006808;28;19959;-44
2020/12/15 03:19:00;;;;;;;;;;;7.50;82.70;;;;;;5006307;28;19925;-44
2020/12/15 03:21:28;;;;;;;;;;;7.50;82.70;;;;;;5006143;28;19983;-44
2020/12/15 03:23:57;;;;;;;;;;;7.50;82.70;;;;;;5002762;28;21270;-44
2020/12/15 03:26:26;;;;;;;;;;;7.50;82.80;;;;;;5007350;28;19925;-44
2020/12/15 03:28:52;;;;;;;;;;;7.50;82.80;;;;;;5005592;28;20377;-44
2020/12/15 03:31:18;;;;;;;;;;;7.50;82.90;;;;;;5006618;28;19925;-43
2020/12/15 03:33:45;;;;;;;;;;;7.60;82.90;;;;;;5003556;28;20008;-44
2020/12/15 03:36:11;;;;;;;;;;;7.50;82.90;;;;;;5004059;28;20016;-44
2020/12/15 03:38:38;;;;;;;;;;;7.60;82.80;;;;;;5006023;28;19987;-43
2020/12/15 03:41:04;;;;;;;;;;;7.60;82.80;;;;;;5006257;28;19940;-43
2020/12/15 03:43:30;;;;;;;;;;;7.50;82.90;;;;;;5005031;28;19925;-43
2020/12/15 03:45:57;;;;;;;;;;;7.50;82.90;;;;;;5006622;28;19929;-44
2020/12/15 03:48:23;;;;;;;;;;;7.50;82.90;;;;;;5007119;28;19930;-43
2020/12/15 03:50:50;;;;;;;;;;;7.50;82.90;;;;;;5006086;28;20376;-43
2020/12/15 03:53:16;;;;;;;;;;;7.50;82.90;;;;;;5005656;28;21003;-43
2020/12/15 03:55:47;;;;;;;;;;;7.50;82.90;;;;;;5003898;28;20016;-43
2020/12/15 03:58:17;;;;;;;;;;;7.50;82.90;;;;;;5004957;28;19939;-43
2020/12/15 04:00:44;;;;;;;;;;;7.50;82.90;;;;;;5004097;28;19932;-44
2020/12/15 04:03:10;;;;;;;;;;;7.50;82.90;;;;;;5006847;28;19935;-44
2020/12/15 04:05:36;;;;;;;;;;;7.50;82.80;;;;;;4997708;28;19940;-43
2020/12/15 04:08:04;;;;;;;;;;;7.50;82.90;;;;;;5004177;28;20050;-43
2020/12/15 04:10:33;;;;;;;;;;;7.50;82.80;;;;;;5001185;28;20282;-43
2020/12/15 04:12:59;;;;;;;;;;;7.50;82.80;;;;;;5005846;28;19932;-44
2020/12/15 04:15:25;;;;;;;;;;;7.50;82.90;;;;;;5004806;28;19933;-43
2020/12/15 04:17:54;;;;;;;;;;;7.50;82.80;;;;;;5006779;28;19989;-44
2020/12/15 04:20:21;;;;;;;;;;;7.50;82.90;;;;;;5004636;28;19936;-43
2020/12/15 04:22:47;;;;;;;;;;;7.50;82.90;;;;;;5006318;28;19932;-43
2020/12/15 04:25:13;;;;;;;;;;;7.50;82.90;;;;;;5007377;28;19935;-43
2020/12/15 04:27:39;;;;;;;;;;;7.50;83.00;;;;;;5003950;28;19930;-43
2020/12/15 04:30:09;;;;;;;;;;;7.50;83.00;;;;;;5005095;28;19929;-43
2020/12/15 04:32:35;;;;;;;;;;;7.50;82.90;;;;;;4999286;28;19929;-44
2020/12/15 04:35:01;;;;;;;;;;;7.50;82.90;;;;;;5020351;28;19932;-44
2020/12/15 04:37:27;;;;;;;;;;;7.50;83.00;;;;;;5004749;28;20408;-44
2020/12/15 04:39:54;;;;;;;;;;;7.50;83.00;;;;;;5003534;28;19925;-44
2020/12/15 04:42:20;;;;;;;;;;;7.50;83.00;;;;;;5005700;28;19925;-43
2020/12/15 04:44:46;;;;;;;;;;;7.50;83.00;;;;;;5006273;28;19929;-43
2020/12/15 04:47:16;;;;;;;;;;;7.50;83.10;;;;;;5003839;28;19933;-44
2020/12/15 04:50:03;;;;;;;;;;;7.60;83.20;;;;;;5006263;28;20390;-44
2020/12/15 04:52:48;;;;;;;;;;;7.50;83.20;;;;;;5005083;28;20396;-43
2020/12/15 04:55:15;;;;;;;;;;;7.50;83.20;;;;;;5009342;28;19926;-43
2020/12/15 04:57:41;;;;;;;;;;;7.50;83.10;;;;;;5005748;28;19958;-43
2020/12/15 05:00:08;;;;;;;;;;;7.60;83.10;;;;;;5004219;28;19988;-43
2020/12/15 05:02:39;;;;;;;;;;;7.60;83.20;;;;;;5009296;28;20039;-43
2020/12/15 05:05:07;;;;;;;;;;;7.60;83.20;;;;;;5007190;28;19925;-42
2020/12/15 05:07:40;;;;;;;;;;;7.60;83.20;;;;;;5004836;28;19925;-43
2020/12/15 05:10:07;;;;;;;;;;;7.60;83.20;;;;;;5006463;28;19936;-43
2020/12/15 05:12:34;;;;;;;;;;;7.60;83.20;;;;;;5002591;28;19956;-44
2020/12/15 05:15:01;;;;;;;;;;;7.60;83.30;;;;;;5005286;28;20369;-44
2020/12/15 05:17:34;;;;;;;;;;;7.60;83.30;;;;;;5007678;28;20477;-43
2020/12/15 05:20:00;;;;;;;;;;;7.60;83.20;;;;;;5005801;28;19926;-44
2020/12/15 05:22:45;;;;;;;;;;;7.60;83.30;;;;;;5007248;28;19933;-44
2020/12/15 05:25:28;;;;;;;;;;;7.60;83.30;;;;;;5010128;28;19936;-44
2020/12/15 05:27:55;;;;;;;;;;;7.60;83.30;;;;;;5011003;28;19964;-43
2020/12/15 05:30:21;;;;;;;;;;;7.60;83.40;;;;;;5005549;28;19932;-43
2020/12/15 05:32:51;;;;;;;;;;;7.60;83.40;;;;;;5008219;28;19926;-43
2020/12/15 05:35:31;;;;;;;;;;;7.60;83.40;;;;;;5008587;28;19929;-44
2020/12/15 05:38:02;;;;;;;;;;;7.60;83.40;;;;;;5009629;28;19964;-43
2020/12/15 05:40:28;;;;;;;;;;;7.50;83.40;;;;;;5007786;28;19925;-43
2020/12/15 05:42:56;;;;;;;;;;;7.50;83.50;;;;;;5006350;28;19932;-44
2020/12/15 05:45:22;;;;;;;;;;;7.50;83.60;;;;;;5006025;28;19925;-44
2020/12/15 05:47:49;;;;;;;;;;;7.50;83.60;;;;;;5020419;28;19930;-42
2020/12/15 05:50:19;;;;;;;;;;;7.50;83.60;;;;;;5006395;28;19925;-44
2020/12/15 05:52:52;;;;;;;;;;;7.60;83.60;;;;;;5021949;28;19932;-44
2020/12/15 05:55:19;;;;;;;;;;;7.60;83.60;;;;;;5009081;28;19933;-43
2020/12/15 05:57:45;;;;;;;;;;;7.60;83.70;;;;;;5005508;28;20381;-43
2020/12/15 06:00:12;;;;;;;;;;;7.60;83.70;;;;;;5008194;28;19933;-43
2020/12/15 06:02:39;;;;;;;;;;;7.60;83.70;;;;;;5007879;28;20131;-44
2020/12/15 06:05:05;;;;;;;;;;;7.60;83.70;;;;;;5008018;28;19929;-44
2020/12/15 06:07:33;;;;;;;;;;;7.60;83.80;;;;;;5004345;28;19936;-43
2020/12/15 06:10:00;;;;;;;;;;;7.60;83.80;;;;;;5006954;28;20369;-43
2020/12/15 06:12:27;;;;;;;;;;;7.60;83.80;;;;;;5007053;28;20453;-43
2020/12/15 06:14:54;;;;;;;;;;;7.60;83.80;;;;;;5008678;28;20282;-43
2020/12/15 06:17:21;;;;;;;;;;;7.60;83.80;;;;;;5006918;28;19933;-44
2020/12/15 06:19:53;;;;;;;;;;;7.60;83.90;;;;;;5008340;28;19932;-44
2020/12/15 06:22:21;;;;;;;;;;;7.60;83.90;;;;;;5019197;28;20313;-42
2020/12/15 06:24:55;;;;;;;;;;;7.60;83.90;;;;;;5011950;28;19932;-43
2020/12/15 06:27:31;;;;;;;;;;;7.60;83.90;;;;;;5007136;28;19936;-43
2020/12/15 06:29:57;;;;;;;;;;;7.60;84.00;;;;;;5008806;28;19944;-44
2020/12/15 06:32:24;;;;;;;;;;;7.70;83.90;;;;;;5007748;28;19930;-43
2020/12/15 06:34:52;;;;;;;;;;;7.70;83.90;;;;;;5006625;28;20034;-43
2020/12/15 06:37:30;;;;;;;;;;;7.60;83.90;;;;;;5008509;28;19929;-44
2020/12/15 06:39:58;;;;;;;;;;;7.60;83.90;;;;;;5006647;28;19941;-43
2020/12/15 06:42:25;;;;;;;;;;;7.70;84.00;;;;;;5005963;28;19925;-43
2020/12/15 06:45:18;;;;;;;;;;;7.70;84.00;;;;;;5006091;28;19933;-42
2020/12/15 06:47:54;;;;;;;;;;;7.70;84.00;;;;;;5007498;28;20000;-44
2020/12/15 06:50:20;;;;;;;;;;;7.70;84.00;;;;;;5004708;28;20027;-43
2020/12/15 06:52:47;;;;;;;;;;;7.70;84.00;;;;;;5004814;28;19935;-43
2020/12/15 06:55:13;;;;;;;;;;;7.70;84.00;;;;;;5006050;28;19929;-44
2020/12/15 06:57:40;;;;;;;;;;;7.70;84.00;;;;;;5006817;28;19929;-43
2020/12/15 07:00:10;;;;;;;;;;;7.70;84.10;;;;;;5005561;28;19929;-44
2020/12/15 07:02:39;;;;;;;;;;;7.70;84.10;;;;;;5005066;28;19965;-44
2020/12/15 07:05:18;;;;;;;;;;;7.70;84.00;;;;;;5007543;28;19936;-43
2020/12/15 07:07:45;;;;;;;;;;;7.70;84.10;;;;;;5008749;28;19933;-43
2020/12/15 07:10:12;;;;;;;;;;;7.70;84.20;;;;;;5007744;28;19930;-43
2020/12/15 07:12:40;;;;;;;;;;;7.70;84.20;;;;;;5006585;28;20411;-44
2020/12/15 07:15:10;;;;;;;;;;;7.70;84.20;;;;;;5006098;28;20370;-44
2020/12/15 07:17:37;;;;;;;;;;;7.70;84.20;;;;;;5005669;28;19929;-44
2020/12/15 07:20:03;;;;;;;;;;;7.70;84.20;;;;;;5005644;28;19956;-43
2020/12/15 07:22:32;;;;;;;;;;;7.70;84.20;;;;;;5004494;28;19933;-44
2020/12/15 07:24:59;;;;;;;;;;;7.80;84.20;;;;;;5004753;28;19979;-42
2020/12/15 07:27:31;;;;;;;;;;;7.70;84.20;;;;;;5004757;28;21483;-43
2020/12/15 07:29:59;;;;;;;;;;;7.70;84.20;;;;;;5005622;28;19936;-43
2020/12/15 07:32:26;;;;;;;;;;;7.70;84.20;;;;;;5006169;28;19936;-43
2020/12/15 07:34:59;;;;;;;;;;;7.80;84.10;;;;;;5008164;28;20016;-42
2020/12/15 07:37:25;;;;;;;;;;;7.80;84.10;;;;;;5007781;28;20549;-43
2020/12/15 07:39:54;;;;;;;;;;;7.80;84.10;;;;;;5004947;28;19925;-43
2020/12/15 07:42:20;;;;;;;;;;;7.80;84.10;;;;;;5005344;28;19929;-44
2020/12/15 07:44:54;;;;;;;;;;;7.80;84.10;;;;;;5010841;28;19947;-43
2020/12/15 07:47:20;;;;;;;;;;;7.80;84.10;;;;;;5017542;28;19932;-43
2020/12/15 07:49:51;;;;;;;;;;;7.80;84.20;;;;;;5006409;28;19971;-44
2020/12/15 07:52:26;;;;;;;;;;;7.80;84.10;;;;;;5004172;28;19940;-43
2020/12/15 07:54:59;;;;;;;;;;;7.80;84.10;;;;;;5005742;28;19929;-43
2020/12/15 07:57:25;;;;;;;;;;;7.80;84.10;;;;;;5006416;28;19931;-44
2020/12/15 07:59:52;;;;;;;;;;;7.80;84.10;;;;;;5003668;28;19932;-43
2020/12/15 08:02:19;;;;;;;;;;;7.80;84.20;;;;;;5004642;28;19940;-44
2020/12/15 08:04:47;;;;;;;;;;;7.80;84.20;;;;;;5002392;28;19933;-43
2020/12/15 08:07:13;;;;;;;;;;;7.80;84.20;;;;;;5000666;28;19929;-44
2020/12/15 08:09:41;;;;;;;;;;;7.80;84.20;;;;;;5005568;28;19929;-44
2020/12/15 08:12:09;;;;;;;;;;;7.90;84.20;;;;;;5005307;28;20365;-44
2020/12/15 08:14:37;;;;;;;;;;;7.90;84.10;;;;;;5001078;28;19940;-43
2020/12/15 08:17:11;;;;;;;;;;;7.90;84.30;;;;;;4999214;28;19942;-43
2020/12/15 08:19:38;;;;;;;;;;;7.90;84.30;;;;;;5001074;28;20011;-44
2020/12/15 08:22:04;;;;;;;;;;;7.90;84.30;;;;;;5004214;28;20408;-43
2020/12/15 08:24:31;;;;;;;;;;;7.90;84.30;;;;;;5005916;28;19936;-44
2020/12/15 08:26:59;;;;;;;;;;;7.90;84.30;;;;;;5001536;28;19932;-43
2020/12/15 08:29:28;;;;;;;;;;;7.90;84.30;;;;;;5004574;28;19941;-44
2020/12/15 08:31:55;;;;;;;;;;;7.90;84.30;;;;;;5004846;28;20620;-43
2020/12/15 08:34:22;;;;;;;;;;;7.90;84.30;;;;;;5004752;28;19953;-43
2020/12/15 08:36:49;;;;;;;;;;;7.90;84.30;;;;;;5011114;28;19930;-43
2020/12/15 08:39:20;;;;;;;;;;;8.00;84.30;;;;;;5018244;28;19993;-43
2020/12/15 08:41:53;;;;;;;;;;;8.00;84.30;;;;;;5001325;28;19937;-44
2020/12/15 08:44:20;;;;;;;;;;;8.00;84.40;;;;;;5003240;28;19933;-44
2020/12/15 08:46:46;;;;;;;;;;;8.00;84.40;;;;;;5003412;28;19939;-43
2020/12/15 08:49:13;;;;;;;;;;;8.00;84.40;;;;;;4997471;28;20049;-43
2020/12/15 08:51:43;;;;;;;;;;;8.00;84.50;;;;;;5000533;28;19960;-44
2020/12/15 08:54:12;;;;;;;;;;;8.00;84.30;;;;;;5007487;28;19929;-44
2020/12/15 08:56:39;;;;;;;;;;;8.00;84.40;;;;;;5004661;28;19934;-43
2020/12/15 08:59:15;;;;;;;;;;;8.10;84.40;;;;;;5001975;28;19926;-41
2020/12/15 09:01:42;;;;;;;;;;;8.10;84.50;;;;;;5010814;28;19929;-44
2020/12/15 09:04:09;;;;;;;;;;;8.10;84.50;;;;;;5005966;28;19932;-43
2020/12/15 09:06:35;;;;;;;;;;;8.10;84.50;;;;;;5006820;28;19929;-44
2020/12/15 09:09:04;;;;;;;;;;;8.10;84.50;;;;;;5007525;28;19929;-41
2020/12/15 09:11:30;;;;;;;;;;;8.10;84.50;;;;;;5008018;28;20031;-44
2020/12/15 09:13:57;;;;;;;;;;;8.20;84.50;;;;;;5003606;28;19933;-45
2020/12/15 09:16:25;;;;;;;;;;;8.20;84.50;;;;;;5003081;28;20416;-42
2020/12/15 09:18:52;;;;;;;;;;;8.20;84.50;;;;;;5007858;28;19932;-44
2020/12/15 09:21:19;;;;;;;;;;;8.20;84.50;;;;;;5007140;28;20392;-44
2020/12/15 09:23:52;;;;;;;;;;;8.30;84.40;;;;;;5003684;28;19933;-44
2020/12/15 09:26:19;;;;;;;;;;;8.30;84.30;;;;;;5018607;28;20266;-44
2020/12/15 09:28:45;;;;;;;;;;;8.30;84.40;;;;;;5008139;28;19940;-43
2020/12/15 09:31:12;;;;;;;;;;;8.30;84.30;;;;;;5003781;28;19929;-44
2020/12/15 09:33:39;;;;;;;;;;;8.40;84.30;;;;;;5010720;28;20392;-44
2020/12/15 09:36:05;;;;;;;;;;;8.40;84.20;;;;;;5008932;28;19951;-44
2020/12/15 09:38:31;;;;;;;;;;;8.40;84.20;;;;;;5008661;28;20373;-44
2020/12/15 09:40:58;;;;;;;;;;;8.40;84.10;;;;;;5004409;28;20468;-43
2020/12/15 09:43:27;;;;;;;;;;;8.50;83.80;;;;;;5008928;28;19952;-43
2020/12/15 09:45:54;;;;;;;;;;;8.40;83.80;;;;;;5007760;28;19930;-43
2020/12/15 09:48:20;;;;;;;;;;;8.50;83.90;;;;;;5006191;28;19933;-44
2020/12/15 09:50:47;;;;;;;;;;;8.50;83.90;;;;;;5008392;28;19925;-42
2020/12/15 09:53:13;;;;;;;;;;;8.50;83.90;;;;;;5010070;28;19974;-44
2020/12/15 09:55:40;;;;;;;;;;;8.50;83.70;;;;;;5008891;28;19965;-43
2020/12/15 09:58:06;;;;;;;;;;;8.50;83.70;;;;;;5002403;28;19940;-44
2020/12/15 10:00:32;;;;;;;;;;;8.50;83.60;;;;;;5011786;28;20566;-44
2020/12/15 10:02:58;;;;;;;;;;;8.50;83.70;;;;;;5003406;28;19929;-45
2020/12/15 10:05:27;;;;;;;;;;;8.50;83.70;;;;;;5006454;28;19937;-44
2020/12/15 10:07:54;;;;;;;;;;;8.50;83.70;;;;;;5005607;28;19926;-44
2020/12/15 10:10:20;;;;;;;;;;;8.60;83.70;;;;;;5002537;28;19933;-44
2020/12/15 10:12:47;;;;;;;;;;;8.60;83.80;;;;;;5009751;28;19925;-43
2020/12/15 10:15:13;;;;;;;;;;;8.60;83.90;;;;;;5006691;28;19939;-44
2020/12/15 10:17:40;;;;;;;;;;;8.60;83.90;;;;;;5022498;28;20364;-44
2020/12/15 10:20:07;;;;;;;;;;;8.60;83.90;;;;;;5006003;28;19932;-44
2020/12/15 10:22:33;;;;;;;;;;;8.60;83.90;;;;;;5006402;28;19933;-44
2020/12/15 10:24:59;;;;;;;;;;;8.70;83.90;;;;;;5021864;28;19926;-43
2020/12/15 10:27:26;;;;;;;;;;;8.70;83.90;;;;;;5001165;28;19937;-43
2020/12/15 10:29:52;;;;;;;;;;;8.70;83.80;;;;;;5007466;28;19933;-44
2020/12/15 10:32:18;;;;;;;;;;;8.70;83.90;;;;;;5003672;28;20362;-43
2020/12/15 10:34:45;;;;;;;;;;;8.70;83.90;;;;;;5001704;28;19934;-45
2020/12/15 10:37:13;;;;;;;;;;;8.70;83.90;;;;;;5001159;28;19933;-44
2020/12/15 10:39:40;;;;;;;;;;;8.70;83.90;;;;;;5001015;28;20305;-44
2020/12/15 10:42:06;;;;;;;;;;;8.70;83.90;;;;;;5001599;28;20020;-45
2020/12/15 10:44:33;;;;;;;;;;;8.70;83.80;;;;;;5004827;28;19968;-44
2020/12/15 10:47:01;;;;;;;;;;;8.70;83.80;;;;;;5006902;28;20373;-44
2020/12/15 10:49:27;;;;;;;;;;;8.70;83.70;;;;;;4997700;28;20049;-44
2020/12/15 10:51:54;;;;;;;;;;;8.80;83.60;;;;;;5006222;28;19988;-44
2020/12/15 10:54:20;;;;;;;;;;;8.80;83.80;;;;;;5004928;28;19933;-45
2020/12/15 10:56:49;;;;;;;;;;;8.70;83.70;;;;;;5003716;28;19925;-44
2020/12/15 10:59:15;;;;;;;;;;;8.80;83.80;;;;;;5002640;28;19930;-44
2020/12/15 11:01:42;;;;;;;;;;;8.80;83.80;;;;;;5004911;28;20377;-43
2020/12/15 11:04:08;;;;;;;;;;;8.80;83.90;;;;;;5004358;28;19929;-44
2020/12/15 11:06:36;;;;;;;;;;;8.80;84.00;;;;;;5005708;28;20253;-45
2020/12/15 11:09:04;;;;;;;;;;;8.80;84.00;;;;;;5006178;28;19929;-44
2020/12/15 11:11:32;;;;;;;;;;;8.80;84.00;;;;;;5005057;28;19995;-45
2020/12/15 11:14:02;;;;;;;;;;;8.80;84.00;;;;;;5005640;28;20292;-44
2020/12/15 11:16:40;;;;;;;;;;;8.90;84.00;;;;;;5006057;28;20004;-44
2020/12/15 11:19:06;;;;;;;;;;;8.90;84.10;;;;;;5003462;28;19937;-44
2020/12/15 11:21:35;;;;;;;;;;;8.90;84.10;;;;;;5006624;28;20259;-45
2020/12/15 11:24:02;;;;;;;;;;;8.90;84.20;;;;;;5007039;28;19952;-44
2020/12/15 11:26:28;;;;;;;;;;;8.90;84.10;;;;;;5009205;28;19929;-44
2020/12/15 11:28:54;;;;;;;;;;;8.90;84.20;;;;;;4994108;28;20023;-43
2020/12/15 11:31:23;;;;;;;;;;;8.90;84.10;;;;;;5001814;28;20036;-43
2020/12/15 11:33:50;;;;;;;;;;;8.90;84.30;;;;;;5004103;28;19935;-44
2020/12/15 11:36:16;;;;;;;;;;;8.90;84.30;;;;;;4988002;28;19925;-44
2020/12/15 11:38:44;;;;;;;;;;;8.90;84.20;;;;;;5004517;28;19925;-44
2020/12/15 11:41:11;;;;;;;;;;;8.90;84.00;;;;;;5005027;28;20542;-44
2020/12/15 11:43:37;;;;;;;;;;;8.90;83.90;;;;;;5006999;28;19929;-44
2020/12/15 11:46:03;;;;;;;;;;;8.90;83.80;;;;;;5007757;28;20417;-44
2020/12/15 11:48:30;;;;;;;;;;;8.90;83.80;;;;;;5005044;28;20075;-43
2020/12/15 11:50:57;;;;;;;;;;;8.90;83.70;;;;;;5003904;28;19980;-44
2020/12/15 11:53:23;;;;;;;;;;;8.90;83.60;;;;;;5002859;28;20377;-44
2020/12/15 11:55:50;;;;;;;;;;;8.90;83.70;;;;;;5004409;28;20012;-44
2020/12/15 11:58:36;;;;;;;;;;;8.90;83.80;;;;;;5007328;28;19937;-44
2020/12/15 12:01:04;;;;;;;;;;;8.90;83.90;;;;;;5007956;28;19933;-44
2020/12/15 12:03:31;;;;;;;;;;;8.90;84.00;;;;;;4982644;28;19937;-44
2020/12/15 12:05:58;;;;;;;;;;;8.90;84.10;;;;;;5006624;28;20013;-45
2020/12/15 12:08:25;;;;;;;;;;;9.00;84.40;;;;;;5005783;28;20019;-44
2020/12/15 12:10:51;;;;;;;;;;;9.00;84.40;;;;;;5005410;28;19941;-44
2020/12/15 12:13:17;;;;;;;;;;;9.00;84.60;;;;;;5003944;28;20966;-44
2020/12/15 12:15:44;;;;;;;;;;;9.00;84.80;;;;;;5007263;28;20585;-44
2020/12/15 12:18:10;;;;;;;;;;;9.10;84.90;;;;;;5005307;28;19933;-44
2020/12/15 12:20:37;;;;;;;;;;;9.10;85.00;;;;;;5004300;28;19936;-45
2020/12/15 12:23:03;;;;;;;;;;;9.10;84.90;;;;;;5005631;28;20443;-44
2020/12/15 12:25:31;;;;;;;;;;;9.20;84.80;;;;;;5006334;28;19932;-44
2020/12/15 12:27:58;;;;;;;;;;;9.10;84.60;;;;;;5008213;28;19925;-44
2020/12/15 12:30:25;;;;;;;;;;;9.10;84.50;;;;;;5003645;28;19933;-45
2020/12/15 12:32:51;;;;;;;;;;;9.10;84.70;;;;;;5009325;28;19968;-44
2020/12/15 12:35:17;;;;;;;;;;;9.10;84.50;;;;;;5011300;28;19933;-44
2020/12/15 12:37:44;;;;;;;;;;;9.10;84.40;;;;;;5009461;28;19939;-44
2020/12/15 12:40:11;;;;;;;;;;;9.10;84.30;;;;;;5009462;28;22422;-45
2020/12/15 12:42:38;;;;;;;;;;;9.10;84.20;;;;;;5012001;28;19933;-44
2020/12/15 12:45:04;;;;;;;;;;;9.20;84.30;;;;;;5012435;28;19937;-45
2020/12/15 12:47:35;;;;;;;;;;;9.20;84.10;;;;;;5012742;28;19937;-45
2020/12/15 12:50:01;;;;;;;;;;;9.10;84.10;;;;;;5006861;28;20831;-45
2020/12/15 12:52:27;;;;;;;;;;;9.10;84.20;;;;;;5009728;28;19929;-44
2020/12/15 12:54:54;;;;;;;;;;;9.10;84.10;;;;;;5009743;28;20150;-44
2020/12/15 12:57:21;;;;;;;;;;;9.20;84.10;;;;;;5015453;28;19933;-44
2020/12/15 12:59:47;;;;;;;;;;;9.20;84.20;;;;;;5008748;28;20389;-44
2020/12/15 13:02:13;;;;;;;;;;;9.20;84.30;;;;;;5008889;28;19921;-44
2020/12/15 13:04:39;;;;;;;;;;;9.20;84.40;;;;;;5010589;28;19933;-45
2020/12/15 13:07:08;;;;;;;;;;;9.20;84.40;;;;;;5007373;28;19940;-44
2020/12/15 13:09:38;;;;;;;;;;;9.20;84.30;;;;;;5009438;28;19972;-43
2020/12/15 13:12:04;;;;;;;;;;;9.20;84.30;;;;;;4998930;28;21189;-44
2020/12/15 13:14:30;;;;;;;;;;;9.20;84.30;;;;;;5008426;28;20338;-44
2020/12/15 13:16:56;;;;;;;;;;;9.20;84.30;;;;;;5011364;28;19930;-44
2020/12/15 13:19:22;;;;;;;;;;;9.20;84.40;;;;;;5022063;28;19933;-44
2020/12/15 13:21:49;;;;;;;;;;;9.20;84.40;;;;;;5008225;28;19929;-45
2020/12/15 13:24:15;;;;;;;;;;;9.20;84.40;;;;;;5025223;28;20031;-43
2020/12/15 13:26:41;;;;;;;;;;;9.20;84.40;;;;;;5011491;28;20022;-45
2020/12/15 13:29:08;;;;;;;;;;;9.20;84.50;;;;;;5010548;28;19963;-44
2020/12/15 13:31:37;;;;;;;;;;;9.20;84.50;;;;;;5009231;28;19925;-45
2020/12/15 13:34:05;;;;;;;;;;;9.20;84.60;;;;;;5005194;28;19973;-43
2020/12/15 13:36:33;;;;;;;;;;;9.20;84.60;;;;;;5008194;28;19936;-43
2020/12/15 13:39:01;;;;;;;;;;;9.20;84.70;;;;;;5007466;28;19929;-45
2020/12/15 13:41:27;;;;;;;;;;;9.20;84.60;;;;;;5009540;28;19932;-45
2020/12/15 13:43:55;;;;;;;;;;;9.20;84.50;;;;;;5007145;28;19929;-44
2020/12/15 13:46:22;;;;;;;;;;;9.20;84.40;;;;;;5008755;28;19929;-45
2020/12/15 13:48:48;;;;;;;;;;;9.20;84.40;;;;;;5011073;28;20419;-44
2020/12/15 13:51:14;;;;;;;;;;;9.20;84.50;;;;;;5009529;28;20817;-45
2020/12/15 13:53:40;;;;;;;;;;;9.20;84.40;;;;;;5010197;28;19933;-44
2020/12/15 13:56:08;;;;;;;;;;;9.20;84.50;;;;;;5011522;28;20308;-45
2020/12/15 13:58:36;;;;;;;;;;;9.30;84.50;;;;;;5011091;28;19932;-45
2020/12/15 14:01:03;;;;;;;;;;;9.20;84.50;;;;;;5011130;28;19933;-45
2020/12/15 14:03:29;;;;;;;;;;;9.20;84.60;;;;;;5010016;28;20020;-45
2020/12/15 14:05:55;;;;;;;;;;;9.20;84.60;;;;;;5010742;28;20019;-45
2020/12/15 14:08:22;;;;;;;;;;;9.20;84.60;;;;;;5009293;28;20023;-45
2020/12/15 14:10:48;;;;;;;;;;;9.20;84.70;;;;;;5007072;28;24733;-44
2020/12/15 14:13:15;;;;;;;;;;;9.20;84.70;;;;;;5008531;28;19932;-44
2020/12/15 14:15:41;;;;;;;;;;;9.20;84.70;;;;;;5009823;28;20399;-45
2020/12/15 14:18:08;;;;;;;;;;;9.20;84.70;;;;;;5013964;28;20369;-44
2020/12/15 14:20:38;;;;;;;;;;;9.20;84.70;;;;;;5008190;28;19967;-45
2020/12/15 14:23:04;;;;;;;;;;;9.20;84.80;;;;;;5007353;28;20011;-45
2020/12/15 14:25:30;;;;;;;;;;;9.20;84.80;;;;;;5007779;28;20311;-45
2020/12/15 14:27:57;;;;;;;;;;;9.20;84.80;;;;;;5009277;28;19925;-44
2020/12/15 14:30:23;;;;;;;;;;;9.20;84.80;;;;;;5008361;28;20012;-44
2020/12/15 14:32:49;;;;;;;;;;;9.20;84.90;;;;;;5013810;28;20285;-44